Time;durP1;ratioP1;P1;durP2;ratioP2;P2;SDS_P1;SDS_P2;PMS_P1;PMS_P2;Temp;Humidity;BMP_temperature;BMP_pressure;BME280_temperature;BME280_humidity;BME280_pressure;Samples;Min_cycle;Max_cycle;Signal;HPM_P1;HPM_P2
2022/03/01 05:09:21;;;;;;;17.48;10.23;;;;;;;;;;4980727;28;21001;-75
2022/03/01 05:11:48;;;;;;;18.10;8.05;;;;;;;;;;5008730;28;20174;-74
2022/03/01 05:14:14;;;;;;;16.25;8.85;;;;;;;;;;5010168;28;20537;-74
2022/03/01 05:16:40;;;;;;;15.73;9.70;;;;;;;;;;5010617;28;20104;-76
2022/03/01 05:19:07;;;;;;;15.60;8.40;;;;;;;;;;5008121;28;20060;-83
2022/03/01 05:21:34;;;;;;;27.17;13.90;;;;;;;;;;5003442;28;20042;-79
2022/03/01 05:24:00;;;;;;;30.00;15.98;;;;;;;;;;5010219;28;20052;-82
2022/03/01 05:26:26;;;;;;;49.72;26.25;;;;;;;;;;5007873;28;20069;-83
2022/03/01 05:28:52;;;;;;;67.80;28.92;;;;;;;;;;4997926;28;20529;-81
2022/03/01 05:31:19;;;;;;;41.75;22.80;;;;;;;;;;5010710;28;20056;-81
2022/03/01 05:33:46;;;;;;;34.60;19.02;;;;;;;;;;5013429;28;20042;-79
2022/03/01 05:36:12;;;;;;;43.97;21.92;;;;;;;;;;5017138;28;20394;-78
2022/03/01 05:38:38;;;;;;;54.60;27.27;;;;;;;;;;5006965;28;20124;-77
2022/03/01 05:41:04;;;;;;;50.63;25.45;;;;;;;;;;5013157;28;20584;-78
2022/03/01 05:43:33;;;;;;;51.78;25.42;;;;;;;;;;5010434;28;20049;-78
2022/03/01 05:45:58;;;;;;;56.42;27.77;;;;;;;;;;5027812;28;20040;-77
2022/03/01 05:48:26;;;;;;;42.60;24.17;;;;;;;;;;4994604;28;20144;-76
2022/03/01 05:50:52;;;;;;;35.00;19.55;;;;;;;;;;4994589;28;20109;-77
2022/03/01 05:53:18;;;;;;;40.17;22.45;;;;;;;;;;4994626;28;20428;-77
2022/03/01 05:55:44;;;;;;;42.30;21.17;;;;;;;;;;4994810;28;20041;-76
2022/03/01 05:58:11;;;;;;;30.80;17.70;;;;;;;;;;5017295;28;20053;-76
2022/03/01 06:00:38;;;;;;;31.33;19.00;;;;;;;;;;5007400;28;20048;-76
2022/03/01 06:03:04;;;;;;;38.75;19.42;;;;;;;;;;5007147;28;20076;-77
2022/03/01 06:05:30;;;;;;;35.38;19.33;;;;;;;;;;4989847;28;20053;-75
2022/03/01 06:07:59;;;;;;;37.97;22.38;;;;;;;;;;5004658;28;20064;-77
2022/03/01 06:10:25;;;;;;;41.53;22.70;;;;;;;;;;4973457;28;20057;-78
2022/03/01 06:12:52;;;;;;;37.05;21.60;;;;;;;;;;5006004;28;20510;-78
2022/03/01 06:15:17;;;;;;;39.30;21.00;;;;;;;;;;4979289;28;20048;-79
2022/03/01 06:17:43;;;;;;;46.83;24.30;;;;;;;;;;4991446;28;20454;-79
2022/03/01 06:20:11;;;;;;;39.67;24.83;;;;;;;;;;5008695;28;20060;-73
2022/03/01 06:22:37;;;;;;;43.05;23.58;;;;;;;;;;5008816;28;20038;-73
2022/03/01 06:25:03;;;;;;;51.88;27.45;;;;;;;;;;5008500;28;20050;-75
2022/03/01 06:27:30;;;;;;;61.08;29.40;;;;;;;;;;4991205;28;20034;-74
2022/03/01 06:29:56;;;;;;;61.65;29.80;;;;;;;;;;5008646;28;20041;-78
2022/03/01 06:32:22;;;;;;;67.88;34.20;;;;;;;;;;4990906;28;20528;-77
2022/03/01 06:34:48;;;;;;;61.60;26.55;;;;;;;;;;4991005;28;20042;-76
2022/03/01 06:37:14;;;;;;;72.97;31.55;;;;;;;;;;5008519;28;20061;-81
2022/03/01 06:39:41;;;;;;;58.45;28.00;;;;;;;;;;5007249;28;20077;-81
2022/03/01 06:42:07;;;;;;;46.22;19.90;;;;;;;;;;5007232;28;20037;-78
2022/03/01 06:44:32;;;;;;;42.17;20.45;;;;;;;;;;4988320;28;20042;-80
2022/03/01 06:46:58;;;;;;;43.08;22.52;;;;;;;;;;4978836;28;20050;-79
2022/03/01 06:49:24;;;;;;;31.20;17.35;;;;;;;;;;4988923;28;20066;-77
2022/03/01 06:51:50;;;;;;;32.42;15.32;;;;;;;;;;4989115;28;20080;-78
2022/03/01 06:54:16;;;;;;;42.80;20.60;;;;;;;;;;5010943;28;20041;-78
2022/03/01 06:56:42;;;;;;;28.27;16.92;;;;;;;;;;5023193;28;20069;-78
2022/03/01 06:59:08;;;;;;;30.83;17.02;;;;;;;;;;5006212;28;20529;-75
2022/03/01 07:01:34;;;;;;;51.53;17.75;;;;;;;;;;5008068;28;20077;-78
2022/03/01 07:04:00;;;;;;;32.00;16.25;;;;;;;;;;5011125;28;20056;-77
2022/03/01 07:06:26;;;;;;;37.80;18.65;;;;;;;;;;4994154;28;20050;-79
2022/03/01 07:08:52;;;;;;;36.75;14.70;;;;;;;;;;5010240;28;20509;-79
2022/03/01 07:11:18;;;;;;;39.03;18.17;;;;;;;;;;4979136;28;20108;-81
2022/03/01 07:13:44;;;;;;;34.90;16.10;;;;;;;;;;5013271;28;20046;-79
2022/03/01 07:16:10;;;;;;;33.58;16.30;;;;;;;;;;5013379;28;20476;-82
2022/03/01 07:18:35;;;;;;;41.53;18.48;;;;;;;;;;5011434;28;20470;-80
2022/03/01 07:21:01;;;;;;;36.90;18.42;;;;;;;;;;5010214;28;20049;-80
2022/03/01 07:23:27;;;;;;;49.55;19.52;;;;;;;;;;5014843;28;20080;-82
2022/03/01 07:25:53;;;;;;;44.67;20.35;;;;;;;;;;5031698;28;20542;-80
2022/03/01 07:28:19;;;;;;;32.10;19.30;;;;;;;;;;5025061;28;20037;-77
2022/03/01 07:30:45;;;;;;;29.80;18.50;;;;;;;;;;5029882;28;20050;-78
2022/03/01 07:33:10;;;;;;;39.40;17.35;;;;;;;;;;5030805;28;20417;-75
2022/03/01 07:35:36;;;;;;;31.67;15.20;;;;;;;;;;5030934;28;20037;-75
2022/03/01 07:38:02;;;;;;;43.47;16.02;;;;;;;;;;5031083;28;20044;-78
2022/03/01 07:40:28;;;;;;;35.03;14.60;;;;;;;;;;5018319;28;20647;-78
2022/03/01 07:42:54;;;;;;;27.83;15.15;;;;;;;;;;5010808;28;20049;-79
2022/03/01 07:45:20;;;;;;;36.03;15.35;;;;;;;;;;5028369;28;20060;-77
2022/03/01 07:47:46;;;;;;;31.42;14.68;;;;;;;;;;4994549;28;20505;-77
2022/03/01 07:50:12;;;;;;;39.35;15.88;;;;;;;;;;5027688;28;20103;-76
2022/03/01 07:52:38;;;;;;;26.65;14.38;;;;;;;;;;5024026;28;20074;-77
2022/03/01 07:55:04;;;;;;;47.15;15.90;;;;;;;;;;4982231;28;20075;-78
2022/03/01 07:57:30;;;;;;;27.80;14.98;;;;;;;;;;4974167;28;20139;-77
2022/03/01 07:59:56;;;;;;;32.92;14.70;;;;;;;;;;4991186;28;20054;-75
2022/03/01 08:02:22;;;;;;;40.70;15.07;;;;;;;;;;4991222;28;20108;-75
2022/03/01 08:04:48;;;;;;;36.55;15.95;;;;;;;;;;4990565;28;20054;-75
2022/03/01 08:07:14;;;;;;;30.52;16.00;;;;;;;;;;4991233;28;20045;-74
2022/03/01 08:09:40;;;;;;;29.58;15.40;;;;;;;;;;5008449;28;20103;-74
2022/03/01 08:12:07;;;;;;;27.55;14.27;;;;;;;;;;5030649;28;20072;-72
2022/03/01 08:14:34;;;;;;;36.53;13.48;;;;;;;;;;5019364;28;20129;-72
2022/03/01 08:17:00;;;;;;;24.90;14.13;;;;;;;;;;5010736;28;20038;-73
2022/03/01 08:19:26;;;;;;;36.67;12.95;;;;;;;;;;5010400;28;20062;-74
2022/03/01 08:21:52;;;;;;;40.13;13.38;;;;;;;;;;5010644;28;20595;-73
2022/03/01 08:24:18;;;;;;;27.38;12.18;;;;;;;;;;5010494;28;20484;-73
2022/03/01 08:26:43;;;;;;;33.45;11.82;;;;;;;;;;5010415;28;20513;-72
2022/03/01 08:29:09;;;;;;;25.95;12.43;;;;;;;;;;5010037;28;20347;-73
2022/03/01 08:31:39;;;;;;;25.77;12.45;;;;;;;;;;5024724;28;20128;-79
2022/03/01 08:34:06;;;;;;;28.55;11.82;;;;;;;;;;5030204;28;20140;-78
2022/03/01 08:36:32;;;;;;;29.35;13.68;;;;;;;;;;5016059;28;20053;-80
2022/03/01 08:38:58;;;;;;;27.77;12.90;;;;;;;;;;5023909;28;20104;-79
2022/03/01 08:41:24;;;;;;;27.35;12.32;;;;;;;;;;5009193;28;20073;-79
2022/03/01 08:43:50;;;;;;;42.88;14.20;;;;;;;;;;4992615;28;20049;-80
2022/03/01 08:46:16;;;;;;;37.75;13.82;;;;;;;;;;5009794;28;20037;-80
2022/03/01 08:48:42;;;;;;;37.55;12.73;;;;;;;;;;4992535;28;20498;-77
2022/03/01 08:51:07;;;;;;;30.67;12.48;;;;;;;;;;5009857;28;20050;-77
2022/03/01 08:53:33;;;;;;;37.60;13.32;;;;;;;;;;5008839;28;20041;-76
2022/03/01 08:55:59;;;;;;;37.03;13.25;;;;;;;;;;4992417;28;20073;-76
2022/03/01 08:58:25;;;;;;;27.23;13.25;;;;;;;;;;4992105;28;20038;-75
2022/03/01 09:00:51;;;;;;;35.40;14.63;;;;;;;;;;5008500;28;20553;-78
2022/03/01 09:03:17;;;;;;;36.88;13.73;;;;;;;;;;5008196;28;20045;-78
2022/03/01 09:05:43;;;;;;;29.10;13.73;;;;;;;;;;4992282;28;20041;-78
2022/03/01 09:08:12;;;;;;;35.20;15.13;;;;;;;;;;4991613;28;20037;-77
2022/03/01 09:10:38;;;;;;;31.50;15.88;;;;;;;;;;5009199;28;20053;-77
2022/03/01 09:13:04;;;;;;;33.28;16.05;;;;;;;;;;5008811;28;20056;-76
2022/03/01 09:15:32;;;;;;;36.97;15.95;;;;;;;;;;5008741;28;20513;-77
2022/03/01 09:17:58;;;;;;;35.78;14.85;;;;;;;;;;4975389;28;20042;-77
2022/03/01 09:20:25;;;;;;;30.70;13.48;;;;;;;;;;4991633;28;20057;-76
2022/03/01 09:22:52;;;;;;;26.42;12.15;;;;;;;;;;5009521;28;20061;-76
2022/03/01 09:25:19;;;;;;;19.08;10.65;;;;;;;;;;5009032;28;20038;-77
2022/03/01 09:27:45;;;;;;;9.05;7.65;;;;;;;;;;4992396;28;20041;-77
2022/03/01 09:30:11;;;;;;;12.40;6.25;;;;;;;;;;4992882;28;20038;-77
2022/03/01 09:32:37;;;;;;;11.48;6.85;;;;;;;;;;5029516;28;20048;-78
2022/03/01 09:35:03;;;;;;;6.85;5.18;;;;;;;;;;4999540;28;20061;-80
2022/03/01 09:37:31;;;;;;;4.82;4.13;;;;;;;;;;5011749;28;20100;-79
2022/03/01 09:40:00;;;;;;;5.30;4.80;;;;;;;;;;5011739;28;20429;-79
2022/03/01 09:42:26;;;;;;;12.13;5.88;;;;;;;;;;5023924;28;20050;-78
2022/03/01 09:44:55;;;;;;;10.35;7.30;;;;;;;;;;5030667;28;20038;-78
2022/03/01 09:47:21;;;;;;;13.23;8.25;;;;;;;;;;5014443;28;20042;-77
2022/03/01 09:49:47;;;;;;;25.23;8.52;;;;;;;;;;5003005;28;20042;-77
2022/03/01 09:52:13;;;;;;;5.63;5.18;;;;;;;;;;4990747;28;20038;-77
2022/03/01 09:54:39;;;;;;;13.07;8.27;;;;;;;;;;5008036;28;20137;-76
2022/03/01 09:57:05;;;;;;;9.55;6.85;;;;;;;;;;4990528;28;20120;-75
2022/03/01 09:59:31;;;;;;;13.10;8.82;;;;;;;;;;5007956;28;20054;-77
2022/03/01 10:01:57;;;;;;;20.80;8.20;;;;;;;;;;5008083;28;20038;-76
2022/03/01 10:04:25;;;;;;;20.88;7.60;;;;;;;;;;5009717;28;20045;-75
2022/03/01 10:06:51;;;;;;;10.40;7.57;;;;;;;;;;5009815;28;20052;-77
2022/03/01 10:09:16;;;;;;;13.98;7.10;;;;;;;;;;4992188;28;20132;-76
2022/03/01 10:11:43;;;;;;;14.23;7.75;;;;;;;;;;5009384;28;20144;-75
2022/03/01 10:14:09;;;;;;;14.82;8.00;;;;;;;;;;4990380;28;20564;-77
2022/03/01 10:16:39;;;;;;;12.38;7.85;;;;;;;;;;5009436;28;20528;-77
2022/03/01 10:19:08;;;;;;;10.75;5.68;;;;;;;;;;5009690;28;20089;-77
2022/03/01 10:21:34;;;;;;;10.25;8.10;;;;;;;;;;5009411;28;20034;-77
2022/03/01 10:24:00;;;;;;;18.65;8.05;;;;;;;;;;5001034;28;20046;-77
2022/03/01 10:26:26;;;;;;;16.25;8.13;;;;;;;;;;4988466;28;20042;-77
2022/03/01 10:28:52;;;;;;;14.80;8.77;;;;;;;;;;4992982;28;20050;-76
2022/03/01 10:31:19;;;;;;;23.33;8.60;;;;;;;;;;5012100;28;20038;-76
2022/03/01 10:33:52;;;;;;;19.58;9.25;;;;;;;;;;5013455;28;20068;-76
2022/03/01 10:36:22;;;;;;;13.90;8.75;;;;;;;;;;5013354;28;20041;-76
2022/03/01 10:39:08;;;;;;;16.83;8.30;;;;;;;;;;5013178;28;20107;-76
2022/03/01 10:41:41;;;;;;;17.05;8.35;;;;;;;;;;4985778;28;20053;-77
2022/03/01 10:44:12;;;;;;;9.50;7.70;;;;;;;;;;4992393;28;20070;-76
2022/03/01 10:46:39;;;;;;;18.20;7.47;;;;;;;;;;4993404;28;20528;-76
2022/03/01 10:49:06;;;;;;;21.08;8.10;;;;;;;;;;4992571;28;20529;-76
2022/03/01 10:51:32;;;;;;;13.07;7.35;;;;;;;;;;4991864;28;20053;-76
2022/03/01 10:53:58;;;;;;;13.43;7.15;;;;;;;;;;4993520;28;20050;-77
2022/03/01 10:56:32;;;;;;;10.38;6.78;;;;;;;;;;4992972;28;20042;-78
2022/03/01 10:58:59;;;;;;;10.50;5.82;;;;;;;;;;4992290;28;20058;-77
2022/03/01 11:01:27;;;;;;;12.32;6.72;;;;;;;;;;5001750;28;20037;-77
2022/03/01 11:03:53;;;;;;;17.75;6.25;;;;;;;;;;5012933;28;20049;-77
2022/03/01 11:06:19;;;;;;;14.27;5.57;;;;;;;;;;4995314;28;20042;-75
2022/03/01 11:08:45;;;;;;;8.63;4.85;;;;;;;;;;4995094;28;20063;-77
2022/03/01 11:11:11;;;;;;;8.05;5.25;;;;;;;;;;5011101;28;20046;-76
2022/03/01 11:13:40;;;;;;;16.08;5.38;;;;;;;;;;5013177;28;20045;-76
2022/03/01 11:16:25;;;;;;;8.07;5.15;;;;;;;;;;5013126;28;20479;-77
2022/03/01 11:19:00;;;;;;;9.10;5.85;;;;;;;;;;5011157;28;20132;-77
2022/03/01 11:21:26;;;;;;;10.23;5.40;;;;;;;;;;4995116;28;20142;-77
2022/03/01 11:23:52;;;;;;;9.52;5.20;;;;;;;;;;5012023;28;20132;-77
2022/03/01 11:26:18;;;;;;;6.47;4.75;;;;;;;;;;5011060;28;20506;-74
2022/03/01 11:28:50;;;;;;;7.78;5.22;;;;;;;;;;5000801;28;20101;-75
2022/03/01 11:31:21;;;;;;;12.25;4.93;;;;;;;;;;4992717;28;20093;-77
2022/03/01 11:33:54;;;;;;;19.08;5.40;;;;;;;;;;5012201;28;20115;-75
2022/03/01 11:36:20;;;;;;;6.25;4.70;;;;;;;;;;5012038;28;20046;-75
2022/03/01 11:38:46;;;;;;;13.27;5.90;;;;;;;;;;4993912;28;20065;-75
2022/03/01 11:41:15;;;;;;;8.73;4.80;;;;;;;;;;5005088;28;20502;-79
2022/03/01 11:43:41;;;;;;;7.40;4.75;;;;;;;;;;5010749;28;20042;-77
2022/03/01 11:46:15;;;;;;;9.77;4.85;;;;;;;;;;5011247;28;20421;-78
2022/03/01 11:48:45;;;;;;;6.93;4.38;;;;;;;;;;4993477;28;20045;-76
2022/03/01 11:51:11;;;;;;;7.65;4.78;;;;;;;;;;5011289;28;20084;-75
2022/03/01 11:53:38;;;;;;;11.57;4.10;;;;;;;;;;4993482;28;20038;-78
2022/03/01 11:56:04;;;;;;;8.07;4.60;;;;;;;;;;5011023;28;20042;-76
2022/03/01 11:58:30;;;;;;;9.45;4.63;;;;;;;;;;5010956;28;20046;-76
2022/03/01 12:00:56;;;;;;;11.10;4.53;;;;;;;;;;5010732;28;20061;-76
2022/03/01 12:03:23;;;;;;;5.40;4.20;;;;;;;;;;5009709;28;20034;-78
2022/03/01 12:05:49;;;;;;;12.52;5.40;;;;;;;;;;4977135;28;20052;-77
2022/03/01 12:08:16;;;;;;;8.63;5.30;;;;;;;;;;5010046;28;20038;-77
2022/03/01 12:10:52;;;;;;;6.30;4.13;;;;;;;;;;5000073;28;20070;-76
2022/03/01 12:13:18;;;;;;;9.52;5.50;;;;;;;;;;4958035;28;20089;-76
2022/03/01 12:15:45;;;;;;;11.63;6.53;;;;;;;;;;4991225;28;20080;-77
2022/03/01 12:18:12;;;;;;;14.40;5.55;;;;;;;;;;4990477;28;20057;-76
2022/03/01 12:20:41;;;;;;;10.52;5.10;;;;;;;;;;4986606;28;21012;-77
2022/03/01 12:23:07;;;;;;;7.05;5.80;;;;;;;;;;4989541;28;20096;-76
2022/03/01 12:25:34;;;;;;;9.25;5.55;;;;;;;;;;4975611;28;20034;-77
2022/03/01 12:28:00;;;;;;;11.10;5.57;;;;;;;;;;4991002;28;20042;-76
2022/03/01 12:30:26;;;;;;;10.23;5.68;;;;;;;;;;4975475;28;20141;-79
2022/03/01 12:32:58;;;;;;;15.50;5.50;;;;;;;;;;4923247;28;20133;-77
2022/03/01 12:35:25;;;;;;;14.30;5.60;;;;;;;;;;4979992;28;20050;-75
2022/03/01 12:37:51;;;;;;;11.93;5.10;;;;;;;;;;4972103;28;20038;-77
2022/03/01 12:40:27;;;;;;;15.25;4.90;;;;;;;;;;4986269;28;20053;-76
2022/03/01 12:43:00;;;;;;;9.27;5.40;;;;;;;;;;4989174;28;20046;-76
2022/03/01 12:45:44;;;;;;;14.57;5.28;;;;;;;;;;4989106;28;20046;-77
2022/03/01 12:48:12;;;;;;;10.88;5.00;;;;;;;;;;4988863;28;20054;-76
2022/03/01 12:50:47;;;;;;;10.98;4.93;;;;;;;;;;4989829;28;20168;-77
2022/03/01 12:53:13;;;;;;;9.55;5.22;;;;;;;;;;4990353;28;20134;-76
2022/03/01 12:55:40;;;;;;;7.43;3.83;;;;;;;;;;4972966;28;20125;-77
2022/03/01 12:58:15;;;;;;;9.50;5.30;;;;;;;;;;4990666;28;20042;-77
2022/03/01 13:00:41;;;;;;;8.93;5.30;;;;;;;;;;4958916;28;20141;-79
2022/03/01 13:03:07;;;;;;;17.30;5.47;;;;;;;;;;4953529;28;20126;-79
2022/03/01 13:05:33;;;;;;;14.98;6.10;;;;;;;;;;4970776;28;20042;-79
2022/03/01 13:07:59;;;;;;;9.90;5.38;;;;;;;;;;4975183;28;20115;-78
2022/03/01 13:10:34;;;;;;;9.05;4.95;;;;;;;;;;4980402;28;20148;-78
2022/03/01 13:13:07;;;;;;;10.35;5.68;;;;;;;;;;5016048;28;20088;-76
2022/03/01 13:15:33;;;;;;;13.15;5.85;;;;;;;;;;5002791;28;20066;-77
2022/03/01 13:18:02;;;;;;;18.92;5.90;;;;;;;;;;5005433;28;20049;-77
2022/03/01 13:20:28;;;;;;;16.45;6.10;;;;;;;;;;5009280;28;20460;-78
2022/03/01 13:23:04;;;;;;;10.95;5.63;;;;;;;;;;5004592;28;20102;-78
2022/03/01 13:25:30;;;;;;;11.82;6.50;;;;;;;;;;5010928;28;20506;-77
2022/03/01 13:27:56;;;;;;;21.17;7.10;;;;;;;;;;5009331;28;20045;-77
2022/03/01 13:30:25;;;;;;;13.90;7.28;;;;;;;;;;5015807;28;20424;-79
2022/03/01 13:33:02;;;;;;;17.13;8.32;;;;;;;;;;5027395;28;20040;-78
2022/03/01 13:35:28;;;;;;;23.95;9.10;;;;;;;;;;5028881;28;20509;-78
2022/03/01 13:38:00;;;;;;;19.33;8.95;;;;;;;;;;5028139;28;20059;-79
2022/03/01 13:40:27;;;;;;;15.32;8.75;;;;;;;;;;5017369;28;20068;-79
2022/03/01 13:43:03;;;;;;;22.10;8.70;;;;;;;;;;4991938;28;20101;-77
2022/03/01 13:45:30;;;;;;;16.83;8.75;;;;;;;;;;5008328;28;20429;-76
2022/03/01 13:47:56;;;;;;;16.77;8.35;;;;;;;;;;5008986;28;20070;-77
2022/03/01 13:50:22;;;;;;;20.05;8.38;;;;;;;;;;5006534;28;20434;-76
2022/03/01 13:52:48;;;;;;;15.88;8.77;;;;;;;;;;5008472;28;20049;-77
2022/03/01 13:55:25;;;;;;;18.63;8.57;;;;;;;;;;5009108;28;20073;-77
2022/03/01 13:57:51;;;;;;;15.38;8.00;;;;;;;;;;5009372;28;20085;-77
2022/03/01 14:00:21;;;;;;;14.48;8.48;;;;;;;;;;5009569;28;20060;-76
2022/03/01 14:02:54;;;;;;;15.43;7.28;;;;;;;;;;5026645;28;20574;-77
2022/03/01 14:05:20;;;;;;;27.40;8.85;;;;;;;;;;5018823;28;20041;-77
2022/03/01 14:08:16;;;;;;;13.73;7.85;;;;;;;;;;5019137;28;20078;-77
2022/03/01 14:10:43;;;;;;;18.90;8.73;;;;;;;;;;5010074;28;20108;-75
2022/03/01 14:13:19;;;;;;;21.35;8.20;;;;;;;;;;5017921;28;20050;-77
2022/03/01 14:15:46;;;;;;;8.68;7.78;;;;;;;;;;5009587;28;20273;-77
2022/03/01 14:18:14;;;;;;;8.50;6.90;;;;;;;;;;4989275;28;20447;-78
2022/03/01 14:20:41;;;;;;;11.68;7.05;;;;;;;;;;5020133;28;20097;-76
2022/03/01 14:23:08;;;;;;;13.93;6.30;;;;;;;;;;5028895;28;20132;-78
2022/03/01 14:25:34;;;;;;;8.15;5.70;;;;;;;;;;5009183;28;20044;-77
2022/03/01 14:27:59;;;;;;;16.33;6.85;;;;;;;;;;5028861;28;20045;-77
2022/03/01 14:30:25;;;;;;;14.60;6.03;;;;;;;;;;5028526;28;20123;-80
2022/03/01 14:32:51;;;;;;;12.25;7.25;;;;;;;;;;5028589;28;20038;-78
2022/03/01 14:35:18;;;;;;;9.70;5.70;;;;;;;;;;5010985;28;20181;-78
2022/03/01 14:37:44;;;;;;;15.60;6.95;;;;;;;;;;5027278;28;20092;-76
2022/03/01 14:40:10;;;;;;;11.43;7.25;;;;;;;;;;5019087;28;20046;-77
2022/03/01 14:42:36;;;;;;;14.40;7.90;;;;;;;;;;5008573;28;20050;-77
2022/03/01 14:45:02;;;;;;;17.42;7.45;;;;;;;;;;5008830;28;20541;-76
2022/03/01 14:47:28;;;;;;;15.38;7.05;;;;;;;;;;5008492;28;20045;-76
2022/03/01 14:49:54;;;;;;;11.57;5.55;;;;;;;;;;5007793;28;20049;-77
2022/03/01 14:52:20;;;;;;;14.63;5.88;;;;;;;;;;5007418;28;20424;-78
2022/03/01 14:54:46;;;;;;;9.63;5.50;;;;;;;;;;5007779;28;20073;-77
2022/03/01 14:57:12;;;;;;;17.02;6.65;;;;;;;;;;5008432;28;20880;-76
2022/03/01 14:59:37;;;;;;;10.10;6.53;;;;;;;;;;4990571;28;20042;-78
2022/03/01 15:02:03;;;;;;;9.73;6.30;;;;;;;;;;5008669;28;20049;-78
2022/03/01 15:04:29;;;;;;;9.27;6.30;;;;;;;;;;4993994;28;20116;-79
2022/03/01 15:06:55;;;;;;;16.10;8.02;;;;;;;;;;5026972;28;20050;-78
2022/03/01 15:09:21;;;;;;;13.48;7.10;;;;;;;;;;5024319;28;20037;-80
2022/03/01 15:11:47;;;;;;;22.67;9.02;;;;;;;;;;5027914;28;20077;-79
2022/03/01 15:14:13;;;;;;;17.85;7.97;;;;;;;;;;5027603;28;20531;-78
2022/03/01 15:16:39;;;;;;;14.77;7.18;;;;;;;;;;5016678;28;20034;-78
2022/03/01 15:19:05;;;;;;;16.42;7.63;;;;;;;;;;5011839;28;20049;-77
2022/03/01 15:21:31;;;;;;;6.85;5.43;;;;;;;;;;5011435;28;20045;-79
2022/03/01 15:23:58;;;;;;;9.52;6.05;;;;;;;;;;5010938;28;20121;-79
2022/03/01 15:26:25;;;;;;;14.30;6.40;;;;;;;;;;5011718;28;20097;-77
2022/03/01 15:28:51;;;;;;;9.48;6.60;;;;;;;;;;5010407;28;20041;-79
2022/03/01 15:31:17;;;;;;;10.98;4.60;;;;;;;;;;5013723;28;20057;-79
2022/03/01 15:33:42;;;;;;;4.70;4.05;;;;;;;;;;4993721;28;20037;-78
2022/03/01 15:36:08;;;;;;;6.45;4.43;;;;;;;;;;5011716;28;20050;-79
2022/03/01 15:38:34;;;;;;;13.48;5.93;;;;;;;;;;5011772;28;20521;-79
2022/03/01 15:41:02;;;;;;;15.43;7.18;;;;;;;;;;5010271;28;20058;-76
2022/03/01 15:43:28;;;;;;;10.88;6.80;;;;;;;;;;5011505;28;20044;-77
2022/03/01 15:45:54;;;;;;;16.70;6.60;;;;;;;;;;5011344;28;20413;-78
2022/03/01 15:48:20;;;;;;;13.82;6.78;;;;;;;;;;5011253;28;20585;-79
2022/03/01 15:50:46;;;;;;;20.73;7.43;;;;;;;;;;4993852;28;20050;-78
2022/03/01 15:53:13;;;;;;;19.55;7.45;;;;;;;;;;5024872;28;20041;-75
2022/03/01 15:55:39;;;;;;;10.00;8.40;;;;;;;;;;5013050;28;20041;-75
2022/03/01 15:58:07;;;;;;;12.70;8.90;;;;;;;;;;5030807;28;20069;-75
2022/03/01 16:00:33;;;;;;;17.73;9.50;;;;;;;;;;5026731;28;20041;-78
2022/03/01 16:02:59;;;;;;;25.33;10.90;;;;;;;;;;5009823;28;20045;-78
2022/03/01 16:05:25;;;;;;;20.73;8.88;;;;;;;;;;4989851;28;20125;-79
2022/03/01 16:07:51;;;;;;;20.08;9.27;;;;;;;;;;5011598;28;20048;-76
2022/03/01 16:10:17;;;;;;;12.57;7.38;;;;;;;;;;5008640;28;20046;-77
2022/03/01 16:12:43;;;;;;;19.58;8.32;;;;;;;;;;4976874;28;20065;-77
2022/03/01 16:15:09;;;;;;;16.02;8.07;;;;;;;;;;5010901;28;20084;-78
2022/03/01 16:17:37;;;;;;;11.57;8.30;;;;;;;;;;5007503;28;20096;-83
2022/03/01 16:20:03;;;;;;;14.15;7.70;;;;;;;;;;5014960;28;20053;-77
2022/03/01 16:22:29;;;;;;;12.18;7.47;;;;;;;;;;5008525;28;20038;-78
2022/03/01 16:24:55;;;;;;;15.38;7.55;;;;;;;;;;5008454;28;20072;-78
2022/03/01 16:27:21;;;;;;;12.48;7.50;;;;;;;;;;4998758;28;20509;-77
2022/03/01 16:29:47;;;;;;;16.20;9.30;;;;;;;;;;4994299;28;20052;-77
2022/03/01 16:32:13;;;;;;;27.20;15.38;;;;;;;;;;5003395;28;20675;-77
2022/03/01 16:34:39;;;;;;;19.20;11.60;;;;;;;;;;4999861;28;20053;-77
2022/03/01 16:37:05;;;;;;;13.48;7.95;;;;;;;;;;5008356;28;20041;-77
2022/03/01 16:39:31;;;;;;;17.60;7.18;;;;;;;;;;5009346;28;20053;-77
2022/03/01 16:41:58;;;;;;;13.40;7.53;;;;;;;;;;5006083;28;20042;-75
2022/03/01 16:44:25;;;;;;;23.35;7.55;;;;;;;;;;5030537;28;20053;-76
2022/03/01 16:46:51;;;;;;;21.38;7.57;;;;;;;;;;5029888;28;20053;-76
2022/03/01 16:49:17;;;;;;;18.52;7.30;;;;;;;;;;5030671;28;20046;-77
2022/03/01 16:51:43;;;;;;;24.40;10.68;;;;;;;;;;5029566;28;20037;-76
2022/03/01 16:54:09;;;;;;;16.17;9.23;;;;;;;;;;5028217;28;20045;-77
2022/03/01 16:56:35;;;;;;;19.30;9.00;;;;;;;;;;5012742;28;20128;-77
2022/03/01 16:59:03;;;;;;;16.75;8.68;;;;;;;;;;5012687;28;20717;-75
2022/03/01 17:01:31;;;;;;;17.60;8.30;;;;;;;;;;4996909;28;20045;-74
2022/03/01 17:03:58;;;;;;;23.35;8.93;;;;;;;;;;5028448;28;20409;-74
2022/03/01 17:06:26;;;;;;;20.90;9.23;;;;;;;;;;5014543;28;20084;-74
2022/03/01 17:08:52;;;;;;;19.05;8.43;;;;;;;;;;4992075;28;20060;-74
2022/03/01 17:11:18;;;;;;;21.42;8.40;;;;;;;;;;5009794;28;20073;-74
2022/03/01 17:13:44;;;;;;;20.92;7.18;;;;;;;;;;5008490;28;20045;-74
2022/03/01 17:16:10;;;;;;;16.55;7.28;;;;;;;;;;5008810;28;20115;-74
2022/03/01 17:18:36;;;;;;;32.45;14.15;;;;;;;;;;4987238;28;20049;-74
2022/03/01 17:21:02;;;;;;;25.23;12.50;;;;;;;;;;4972906;28;20551;-74
2022/03/01 17:23:29;;;;;;;31.08;10.65;;;;;;;;;;4989866;28;20120;-74
2022/03/01 17:25:54;;;;;;;27.58;10.68;;;;;;;;;;4990755;28;20053;-75
2022/03/01 17:28:20;;;;;;;28.13;11.77;;;;;;;;;;4990797;28;20514;-77
2022/03/01 17:30:46;;;;;;;30.45;16.10;;;;;;;;;;5014731;28;20045;-75
2022/03/01 17:33:13;;;;;;;34.28;15.55;;;;;;;;;;5029953;28;20471;-74
2022/03/01 17:35:39;;;;;;;32.60;14.75;;;;;;;;;;5012060;28;20501;-75
2022/03/01 17:38:05;;;;;;;29.45;14.27;;;;;;;;;;5028386;28;20080;-75
2022/03/01 17:40:31;;;;;;;28.77;12.30;;;;;;;;;;5015737;28;20518;-75
2022/03/01 17:42:57;;;;;;;22.90;12.02;;;;;;;;;;5019665;28;20041;-75
2022/03/01 17:45:23;;;;;;;28.17;13.05;;;;;;;;;;5029292;28;20104;-75
2022/03/01 17:47:52;;;;;;;25.35;10.48;;;;;;;;;;5027687;28;20103;-74
2022/03/01 17:50:19;;;;;;;28.77;12.32;;;;;;;;;;5029355;28;20041;-75
2022/03/01 17:52:45;;;;;;;23.42;12.40;;;;;;;;;;5011306;28;20043;-75
2022/03/01 17:55:11;;;;;;;13.85;7.78;;;;;;;;;;4999754;28;20050;-76
2022/03/01 17:57:37;;;;;;;27.10;14.13;;;;;;;;;;4992447;28;20053;-75
2022/03/01 18:00:05;;;;;;;37.42;17.60;;;;;;;;;;5009402;28;20053;-75
2022/03/01 18:02:37;;;;;;;42.70;17.13;;;;;;;;;;5004503;28;20417;-75
2022/03/01 18:05:03;;;;;;;36.67;15.55;;;;;;;;;;5009120;28;20497;-75
2022/03/01 18:07:30;;;;;;;42.78;17.70;;;;;;;;;;4990341;28;20086;-76
2022/03/01 18:09:55;;;;;;;46.17;17.52;;;;;;;;;;4992199;28;20592;-75
2022/03/01 18:12:21;;;;;;;47.40;18.08;;;;;;;;;;4975228;28;20125;-75
2022/03/01 18:14:49;;;;;;;51.22;17.02;;;;;;;;;;4991604;28;20068;-75
2022/03/01 18:17:16;;;;;;;42.85;15.55;;;;;;;;;;4991623;28;20129;-74
2022/03/01 18:19:42;;;;;;;36.03;16.00;;;;;;;;;;4990873;28;20069;-74
2022/03/01 18:22:09;;;;;;;30.67;12.95;;;;;;;;;;4959347;28;20050;-75
2022/03/01 18:24:35;;;;;;;32.20;14.07;;;;;;;;;;4975040;28;20038;-75
2022/03/01 18:27:02;;;;;;;38.13;13.07;;;;;;;;;;4953384;28;20042;-74
2022/03/01 18:29:28;;;;;;;22.83;11.38;;;;;;;;;;4989190;28;20146;-75
2022/03/01 18:31:54;;;;;;;28.23;11.60;;;;;;;;;;4970013;28;20492;-75
2022/03/01 18:34:20;;;;;;;36.75;15.05;;;;;;;;;;4991111;28;20048;-75
2022/03/01 18:36:47;;;;;;;34.03;12.80;;;;;;;;;;5008024;28;20847;-76
2022/03/01 18:39:14;;;;;;;30.77;14.18;;;;;;;;;;4997725;28;20073;-74
2022/03/01 18:41:40;;;;;;;37.28;14.00;;;;;;;;;;5003304;28;20054;-75
2022/03/01 18:44:06;;;;;;;30.42;12.65;;;;;;;;;;5003259;28;20493;-76
2022/03/01 18:46:33;;;;;;;25.65;11.18;;;;;;;;;;5001381;28;20068;-76
2022/03/01 18:48:59;;;;;;;38.83;10.43;;;;;;;;;;4978091;28;20041;-75
2022/03/01 18:51:25;;;;;;;20.73;10.95;;;;;;;;;;4996602;28;20046;-75
2022/03/01 18:53:52;;;;;;;19.20;9.73;;;;;;;;;;5012537;28;20077;-76
2022/03/01 18:56:19;;;;;;;26.40;10.30;;;;;;;;;;4997748;28;20057;-75
2022/03/01 18:58:45;;;;;;;20.33;8.98;;;;;;;;;;5032242;28;20064;-76
2022/03/01 19:01:12;;;;;;;38.45;9.57;;;;;;;;;;5014508;28;20112;-75
2022/03/01 19:03:38;;;;;;;19.08;10.05;;;;;;;;;;5031837;28;20131;-75
2022/03/01 19:06:04;;;;;;;23.10;9.60;;;;;;;;;;5012340;28;20052;-75
2022/03/01 19:08:31;;;;;;;20.48;9.48;;;;;;;;;;5016101;28;20045;-75
2022/03/01 19:10:57;;;;;;;27.17;10.45;;;;;;;;;;5013967;28;20411;-75
2022/03/01 19:13:24;;;;;;;24.70;11.23;;;;;;;;;;5031595;28;20539;-74
2022/03/01 19:15:51;;;;;;;21.13;9.50;;;;;;;;;;5023511;28;20080;-75
2022/03/01 19:18:17;;;;;;;29.20;13.68;;;;;;;;;;5006924;28;20065;-75
2022/03/01 19:20:43;;;;;;;30.65;13.48;;;;;;;;;;4998572;28;20557;-75
2022/03/01 19:23:11;;;;;;;34.20;13.75;;;;;;;;;;5011194;28;20410;-74
2022/03/01 19:25:39;;;;;;;26.40;13.50;;;;;;;;;;4987617;28;20045;-75
2022/03/01 19:28:06;;;;;;;36.40;14.88;;;;;;;;;;5009022;28;20827;-75
2022/03/01 19:30:32;;;;;;;42.65;14.52;;;;;;;;;;5001675;28;20104;-76
2022/03/01 19:32:57;;;;;;;27.40;13.27;;;;;;;;;;4967145;28;20045;-74